Time;durP1;ratioP1;P1;durP2;ratioP2;P2;SDS_P1;SDS_P2;PMS_P1;PMS_P2;Temp;Humidity;BMP_temperature;BMP_pressure;BME280_temperature;BME280_humidity;BME280_pressure;Samples;Min_cycle;Max_cycle;Signal;HPM_P1;HPM_P2
2022/05/14 00:00:36;;;;;;;;;;;;;;;;;;5050598;28;1410;-76
2022/05/14 00:03:02;;;;;;;;;;;;;;;;;;5048221;28;1157;-75
2022/05/14 00:05:27;;;;;;;;;;;;;;;;;;5064980;28;1300;-75
2022/05/14 00:07:52;;;;;;;;;;;;;;;;;;5088155;28;1174;-76
2022/05/14 00:10:19;;;;;;;;;;;;;;;;;;5034710;28;1224;-76
2022/05/14 00:15:30;;;;;;;;;;;;;;;;;;5073365;28;1045;-76
2022/05/14 00:17:55;;;;;;;;;;;;;;;;;;5068208;28;1338;-76
2022/05/14 00:20:21;;;;;;;;;;;;;;;;;;5052686;28;1340;-75
2022/05/14 00:22:46;;;;;;;;;;;;;;;;;;5042792;28;1184;-76
2022/05/14 00:25:15;;;;;;;;;;;;;;;;;;5069542;28;1239;-76
2022/05/14 00:27:41;;;;;;;;;;;;;;;;;;5049988;28;1180;-75
2022/05/14 00:30:07;;;;;;;;;;;;;;;;;;5063814;28;1224;-76
2022/05/14 00:32:32;;;;;;;;;;;;;;;;;;5060809;28;1947;-76
2022/05/14 00:34:58;;;;;;;;;;;;;;;;;;5067761;28;1121;-76
2022/05/14 00:37:23;;;;;;;;;;;;;;;;;;5051772;28;1323;-76
2022/05/14 00:39:48;;;;;;;;;;;;;;;;;;5069999;28;1136;-76
2022/05/14 00:42:18;;;;;;;;;;;;;;;;;;5048889;28;1325;-76
2022/05/14 00:44:43;;;;;;;;;;;;;;;;;;5060527;28;1326;-75
2022/05/14 00:47:16;;;;;;;;;;;;;;;;;;5069260;28;1301;-76
2022/05/14 00:49:42;;;;;;;;;;;;;;;;;;5068233;28;1149;-76
2022/05/14 00:52:11;;;;;;;;;;;;;;;;;;5052312;28;2287;-76
2022/05/14 00:55:03;;;;;;;;;;;;;;;;;;5067171;28;1292;-76
2022/05/14 00:57:35;;;;;;;;;;;;;;;;;;5076641;28;1159;-75
2022/05/14 01:00:02;;;;;;;;;;;;;;;;;;5049571;28;1326;-75
2022/05/14 01:02:28;;;;;;;;;;;;;;;;;;5048974;28;1213;-75
2022/05/14 01:04:54;;;;;;;;;;;;;;;;;;5085405;28;1184;-75
2022/05/14 01:07:20;;;;;;;;;;;;;;;;;;5066643;28;1172;-76
2022/05/14 01:09:48;;;;;;;;;;;;;;;;;;5067292;28;1310;-75
2022/05/14 01:12:20;;;;;;;;;;;;;;;;;;5063273;28;1901;-75
2022/05/14 01:14:46;;;;;;;;;;;;;;;;;;5055111;28;1243;-75
2022/05/14 01:17:11;;;;;;;;;;;;;;;;;;5055623;28;1203;-76
2022/05/14 01:19:36;;;;;;;;;;;;;;;;;;5060328;28;1196;-76
2022/05/14 01:22:31;;;;;;;;;;;;;;;;;;5080355;28;1081;-76
2022/05/14 01:27:51;;;;;;;;;;;;;;;;;;5064119;28;1056;-75
2022/05/14 01:30:21;;;;;;;;;;;;;;;;;;5043382;28;1340;-75
2022/05/14 01:32:46;;;;;;;;;;;;;;;;;;5049364;28;1886;-75
2022/05/14 01:35:15;;;;;;;;;;;;;;;;;;5070096;28;1315;-75
2022/05/14 01:37:40;;;;;;;;;;;;;;;;;;5083764;28;1195;-75
2022/05/14 01:40:06;;;;;;;;;;;;;;;;;;5052517;28;1200;-76
2022/05/14 01:42:32;;;;;;;;;;;;;;;;;;5084254;28;1247;-75
2022/05/14 01:44:58;;;;;;;;;;;;;;;;;;5050157;28;1229;-75
2022/05/14 01:47:23;;;;;;;;;;;;;;;;;;5051979;28;1275;-76
2022/05/14 01:49:48;;;;;;;;;;;;;;;;;;5067423;28;1167;-76
2022/05/14 01:52:13;;;;;;;;;;;;;;;;;;5068018;28;1873;-76
2022/05/14 01:54:39;;;;;;;;;;;;;;;;;;5056177;28;1200;-76
2022/05/14 01:57:04;;;;;;;;;;;;;;;;;;5065611;28;1227;-76
2022/05/14 01:59:29;;;;;;;;;;;;;;;;;;5066973;28;1141;-76
2022/05/14 02:01:54;;;;;;;;;;;;;;;;;;5068794;28;1279;-76
2022/05/14 02:04:20;;;;;;;;;;;;;;;;;;5037534;28;1320;-76
2022/05/14 02:06:46;;;;;;;;;;;;;;;;;;5050874;28;1288;-76
2022/05/14 02:09:12;;;;;;;;;;;;;;;;;;5067640;28;1152;-76
2022/05/14 02:11:39;;;;;;;;;;;;;;;;;;5049714;28;1967;-76
2022/05/14 02:14:04;;;;;;;;;;;;;;;;;;5078897;28;1270;-75
2022/05/14 02:16:29;;;;;;;;;;;;;;;;;;5071093;28;1285;-75
2022/05/14 02:18:55;;;;;;;;;;;;;;;;;;5078820;28;1153;-76
2022/05/14 02:21:24;;;;;;;;;;;;;;;;;;5070747;28;1368;-75
2022/05/14 02:23:50;;;;;;;;;;;;;;;;;;5052550;28;1311;-77
2022/05/14 02:26:15;;;;;;;;;;;;;;;;;;5086086;28;1152;-75
2022/05/14 02:28:41;;;;;;;;;;;;;;;;;;5070065;28;1171;-77
2022/05/14 02:31:06;;;;;;;;;;;;;;;;;;5089424;28;1960;-75
2022/05/14 02:33:32;;;;;;;;;;;;;;;;;;5086529;28;1215;-76
2022/05/14 02:35:58;;;;;;;;;;;;;;;;;;5056416;28;1160;-76
2022/05/14 02:38:28;;;;;;;;;;;;;;;;;;5070945;28;1165;-76
2022/05/14 02:40:54;;;;;;;;;;;;;;;;;;5070754;28;1200;-76
2022/05/14 02:43:19;;;;;;;;;;;;;;;;;;5067988;28;1192;-76
2022/05/14 02:45:45;;;;;;;;;;;;;;;;;;5049756;28;1466;-77
2022/05/14 02:48:10;;;;;;;;;;;;;;;;;;5082340;28;1165;-76
2022/05/14 02:50:36;;;;;;;;;;;;;;;;;;5054632;28;1413;-77
2022/05/14 02:53:01;;;;;;;;;;;;;;;;;;5060513;28;1897;-77
2022/05/14 02:55:30;;;;;;;;;;;;;;;;;;5070587;28;1490;-77
2022/05/14 02:57:55;;;;;;;;;;;;;;;;;;5052248;28;1189;-77
2022/05/14 03:00:21;;;;;;;;;;;;;;;;;;5084143;28;1195;-76
2022/05/14 03:02:46;;;;;;;;;;;;;;;;;;5056377;28;1245;-76
2022/05/14 03:05:12;;;;;;;;;;;;;;;;;;5073962;28;1184;-76
2022/05/14 03:07:38;;;;;;;;;;;;;;;;;;5043886;28;1275;-76
2022/05/14 03:10:03;;;;;;;;;;;;;;;;;;5051043;28;1279;-76
2022/05/14 03:12:32;;;;;;;;;;;;;;;;;;5062135;28;1945;-76
2022/05/14 03:14:57;;;;;;;;;;;;;;;;;;5082032;28;1298;-76
2022/05/14 03:17:23;;;;;;;;;;;;;;;;;;5067410;28;1321;-76
2022/05/14 03:19:49;;;;;;;;;;;;;;;;;;5061530;28;1132;-76
2022/05/14 03:22:15;;;;;;;;;;;;;;;;;;5070159;28;1156;-77
2022/05/14 03:24:40;;;;;;;;;;;;;;;;;;5069816;28;1228;-76
2022/05/14 03:27:06;;;;;;;;;;;;;;;;;;5052748;28;1196;-76
2022/05/14 03:29:32;;;;;;;;;;;;;;;;;;5078735;28;1236;-77
2022/05/14 03:31:57;;;;;;;;;;;;;;;;;;5051761;28;1898;-75
2022/05/14 03:34:23;;;;;;;;;;;;;;;;;;5052779;28;1366;-76
2022/05/14 03:36:49;;;;;;;;;;;;;;;;;;5069009;28;1204;-77
2022/05/14 03:39:15;;;;;;;;;;;;;;;;;;5051403;28;1366;-77
2022/05/14 03:41:40;;;;;;;;;;;;;;;;;;5071388;28;1255;-76
2022/05/14 03:44:06;;;;;;;;;;;;;;;;;;5067046;28;1172;-76
2022/05/14 03:46:31;;;;;;;;;;;;;;;;;;5071481;28;1156;-76
2022/05/14 03:48:57;;;;;;;;;;;;;;;;;;5051635;28;1347;-76
2022/05/14 03:51:22;;;;;;;;;;;;;;;;;;5072158;28;1949;-77
2022/05/14 03:53:47;;;;;;;;;;;;;;;;;;5068926;28;1180;-77
2022/05/14 03:56:13;;;;;;;;;;;;;;;;;;5070914;28;1224;-76
2022/05/14 03:58:38;;;;;;;;;;;;;;;;;;5056125;28;1301;-76
2022/05/14 04:01:04;;;;;;;;;;;;;;;;;;5069697;28;1234;-77
2022/05/14 04:03:34;;;;;;;;;;;;;;;;;;5073649;28;1333;-75
2022/05/14 04:05:59;;;;;;;;;;;;;;;;;;5059641;28;1469;-76
2022/05/14 04:08:24;;;;;;;;;;;;;;;;;;5086042;28;1172;-76
2022/05/14 04:10:50;;;;;;;;;;;;;;;;;;5062980;28;1187;-76
2022/05/14 04:13:15;;;;;;;;;;;;;;;;;;5028379;28;1967;-75
2022/05/14 04:15:41;;;;;;;;;;;;;;;;;;5047368;28;1235;-76
2022/05/14 04:18:06;;;;;;;;;;;;;;;;;;5046877;28;1220;-77
2022/05/14 04:20:33;;;;;;;;;;;;;;;;;;5026041;28;1243;-76
2022/05/14 04:22:58;;;;;;;;;;;;;;;;;;5065692;28;1347;-76
2022/05/14 04:25:24;;;;;;;;;;;;;;;;;;5013598;28;1300;-76
2022/05/14 04:27:49;;;;;;;;;;;;;;;;;;5044506;28;1121;-76
2022/05/14 04:30:15;;;;;;;;;;;;;;;;;;5024835;28;1187;-77
2022/05/14 04:32:40;;;;;;;;;;;;;;;;;;5059684;28;1922;-77
2022/05/14 04:35:07;;;;;;;;;;;;;;;;;;5067282;28;1226;-76
2022/05/14 04:37:36;;;;;;;;;;;;;;;;;;5066497;28;1266;-76
2022/05/14 04:40:01;;;;;;;;;;;;;;;;;;5065360;28;1259;-77
2022/05/14 04:42:26;;;;;;;;;;;;;;;;;;5066593;28;1191;-76
2022/05/14 04:44:55;;;;;;;;;;;;;;;;;;5081466;28;1105;-76
2022/05/14 04:47:20;;;;;;;;;;;;;;;;;;5066345;28;1436;-76
2022/05/14 04:49:49;;;;;;;;;;;;;;;;;;5063735;28;1199;-76
2022/05/14 04:52:15;;;;;;;;;;;;;;;;;;5059044;28;1922;-76
2022/05/14 04:54:40;;;;;;;;;;;;;;;;;;5065217;28;1155;-76
2022/05/14 04:57:06;;;;;;;;;;;;;;;;;;5025390;28;1276;-75
2022/05/14 04:59:32;;;;;;;;;;;;;;;;;;5027866;28;1209;-76
2022/05/14 05:04:42;;;;;;;;;;;;;;;;;;5068588;28;1096;-76
2022/05/14 05:07:08;;;;;;;;;;;;;;;;;;5054805;28;1171;-76
2022/05/14 05:09:33;;;;;;;;;;;;;;;;;;5052689;28;1177;-76
2022/05/14 05:12:02;;;;;;;;;;;;;;;;;;5033207;28;1918;-76
2022/05/14 05:14:30;;;;;;;;;;;;;;;;;;5064094;28;1393;-76
2022/05/14 05:16:55;;;;;;;;;;;;;;;;;;5065599;28;1373;-76
2022/05/14 05:19:21;;;;;;;;;;;;;;;;;;5057952;28;1152;-76
2022/05/14 05:21:46;;;;;;;;;;;;;;;;;;5059519;28;1188;-76
2022/05/14 05:24:11;;;;;;;;;;;;;;;;;;5055977;28;1139;-76
2022/05/14 05:26:40;;;;;;;;;;;;;;;;;;5047079;28;1300;-76
2022/05/14 05:29:05;;;;;;;;;;;;;;;;;;5030029;28;1159;-76
2022/05/14 05:31:32;;;;;;;;;;;;;;;;;;5045969;28;1961;-76
2022/05/14 05:33:57;;;;;;;;;;;;;;;;;;5045366;28;1165;-76
2022/05/14 05:36:23;;;;;;;;;;;;;;;;;;5058868;28;1199;-77
2022/05/14 05:38:48;;;;;;;;;;;;;;;;;;5053916;28;1203;-76
2022/05/14 05:41:13;;;;;;;;;;;;;;;;;;5078222;28;1212;-76
2022/05/14 05:43:42;;;;;;;;;;;;;;;;;;5036474;28;1255;-77
2022/05/14 05:46:08;;;;;;;;;;;;;;;;;;5053378;28;1215;-76
2022/05/14 05:48:33;;;;;;;;;;;;;;;;;;5057609;28;1184;-78
2022/05/14 05:50:58;;;;;;;;;;;;;;;;;;5063404;28;1017;-79
2022/05/14 05:56:46;;;;;;;;;;;;;;;;;;5044637;28;1894;-78
2022/05/14 05:58:53;;;;;;;;;;;;;;;;;;5040309;28;1124;-77
2022/05/14 06:01:18;;;;;;;;;;;;;;;;;;5076788;28;1386;-79
2022/05/14 06:03:48;;;;;;;;;;;;;;;;;;5028153;28;1507;-78
2022/05/14 06:06:16;;;;;;;;;;;;;;;;;;5028243;28;1338;-77
2022/05/14 06:08:47;;;;;;;;;;;;;;;;;;5031921;28;1245;-77
2022/05/14 06:11:12;;;;;;;;;;;;;;;;;;5050040;28;1949;-77
2022/05/14 06:13:38;;;;;;;;;;;;;;;;;;5048935;28;1173;-79
2022/05/14 06:16:03;;;;;;;;;;;;;;;;;;5048977;28;1295;-79
2022/05/14 06:18:29;;;;;;;;;;;;;;;;;;5059623;28;1137;-78
2022/05/14 06:20:54;;;;;;;;;;;;;;;;;;5044275;28;1051;-78
2022/05/14 06:23:20;;;;;;;;;;;;;;;;;;5040467;28;1145;-78
2022/05/14 06:25:48;;;;;;;;;;;;;;;;;;5061965;28;1176;-78
2022/05/14 06:28:13;;;;;;;;;;;;;;;;;;5063730;28;1153;-78
2022/05/14 06:30:43;;;;;;;;;;;;;;;;;;5051769;28;1223;-78
2022/05/14 06:33:12;;;;;;;;;;;;;;;;;;5030666;28;1890;-78
2022/05/14 06:35:38;;;;;;;;;;;;;;;;;;5061385;28;1264;-78
2022/05/14 06:38:04;;;;;;;;;;;;;;;;;;5033488;28;1154;-78
2022/05/14 06:40:29;;;;;;;;;;;;;;;;;;5046950;28;1165;-78
2022/05/14 06:42:55;;;;;;;;;;;;;;;;;;5009290;28;1242;-78
2022/05/14 06:45:20;;;;;;;;;;;;;;;;;;5046285;28;1172;-78
2022/05/14 06:47:48;;;;;;;;;;;;;;;;;;5036288;28;1217;-78
2022/05/14 06:50:17;;;;;;;;;;;;;;;;;;5049987;28;1101;-79
2022/05/14 06:52:48;;;;;;;;;;;;;;;;;;5046615;28;1951;-77
2022/05/14 06:55:14;;;;;;;;;;;;;;;;;;5049816;28;1349;-76
2022/05/14 06:57:50;;;;;;;;;;;;;;;;;;5047484;28;1153;-79
2022/05/14 07:00:15;;;;;;;;;;;;;;;;;;5051904;28;1160;-78
2022/05/14 07:02:41;;;;;;;;;;;;;;;;;;5084054;28;1148;-76
2022/05/14 07:07:51;;;;;;;;;;;;;;;;;;5049220;28;1032;-78
2022/05/14 07:10:16;;;;;;;;;;;;;;;;;;5050866;28;1188;-77
2022/05/14 07:13:01;;;;;;;;;;;;;;;;;;5058535;28;1965;-77
2022/05/14 07:15:26;;;;;;;;;;;;;;;;;;5047976;28;1218;-77
2022/05/14 07:17:51;;;;;;;;;;;;;;;;;;5047543;28;1199;-76
2022/05/14 07:20:16;;;;;;;;;;;;;;;;;;5048925;28;1099;-75
2022/05/14 07:22:42;;;;;;;;;;;;;;;;;;5051519;28;1242;-77
2022/05/14 07:25:08;;;;;;;;;;;;;;;;;;5047178;28;1282;-77
2022/05/14 07:27:34;;;;;;;;;;;;;;;;;;5069829;28;1124;-77
2022/05/14 07:30:00;;;;;;;;;;;;;;;;;;5068444;28;1164;-76
2022/05/14 07:32:25;;;;;;;;;;;;;;;;;;5085190;28;1889;-77
2022/05/14 07:34:53;;;;;;;;;;;;;;;;;;5067138;28;1389;-77
2022/05/14 07:37:25;;;;;;;;;;;;;;;;;;5062614;28;1232;-77
2022/05/14 07:39:53;;;;;;;;;;;;;;;;;;5082389;28;1195;-77
2022/05/14 07:42:22;;;;;;;;;;;;;;;;;;5058252;28;1208;-77
2022/05/14 07:44:56;;;;;;;;;;;;;;;;;;5047330;28;1188;-77
2022/05/14 07:47:22;;;;;;;;;;;;;;;;;;5047903;28;1215;-77
2022/05/14 07:49:48;;;;;;;;;;;;;;;;;;5064894;28;1117;-78
2022/05/14 07:52:14;;;;;;;;;;;;;;;;;;5046498;28;1890;-79
2022/05/14 07:54:40;;;;;;;;;;;;;;;;;;5047512;28;1430;-79
2022/05/14 07:57:06;;;;;;;;;;;;;;;;;;5079321;28;1061;-79
2022/05/14 07:59:32;;;;;;;;;;;;;;;;;;5062993;28;1200;-77
2022/05/14 08:01:58;;;;;;;;;;;;;;;;;;5058553;28;1152;-77
2022/05/14 08:04:23;;;;;;;;;;;;;;;;;;5065348;28;1369;-77
2022/05/14 08:06:48;;;;;;;;;;;;;;;;;;5068794;28;1153;-77
2022/05/14 08:09:13;;;;;;;;;;;;;;;;;;5049514;28;1406;-78
2022/05/14 08:11:39;;;;;;;;;;;;;;;;;;5058317;28;1901;-74
2022/05/14 08:14:04;;;;;;;;;;;;;;;;;;5061962;28;1204;-77
2022/05/14 08:16:30;;;;;;;;;;;;;;;;;;5061336;28;1291;-77
2022/05/14 08:18:58;;;;;;;;;;;;;;;;;;5050493;28;1374;-77
2022/05/14 08:27:00;;;;;;;;;;;;;;;;;;5049110;28;1082;-77
2022/05/14 08:29:25;;;;;;;;;;;;;;;;;;5053185;28;1296;-77
2022/05/14 08:31:51;;;;;;;;;;;;;;;;;;5047431;28;1953;-78
2022/05/14 08:34:17;;;;;;;;;;;;;;;;;;5054896;28;1140;-78
2022/05/14 08:36:42;;;;;;;;;;;;;;;;;;5051604;28;1268;-77
2022/05/14 08:39:09;;;;;;;;;;;;;;;;;;5057208;28;1172;-78
2022/05/14 08:41:36;;;;;;;;;;;;;;;;;;5079654;28;1225;-77
2022/05/14 08:44:04;;;;;;;;;;;;;;;;;;5049356;28;1386;-78
2022/05/14 08:46:30;;;;;;;;;;;;;;;;;;5065673;28;1212;-77
2022/05/14 08:49:03;;;;;;;;;;;;;;;;;;5060506;28;1245;-78
2022/05/14 08:51:33;;;;;;;;;;;;;;;;;;5045780;28;1984;-77
2022/05/14 08:54:03;;;;;;;;;;;;;;;;;;5045596;28;1168;-77
2022/05/14 08:56:41;;;;;;;;;;;;;;;;;;5047983;28;1108;-77
2022/05/14 08:59:25;;;;;;;;;;;;;;;;;;5042167;28;1175;-77
2022/05/14 09:01:52;;;;;;;;;;;;;;;;;;5047484;28;1315;-77
2022/05/14 09:04:17;;;;;;;;;;;;;;;;;;5042388;28;1193;-77
2022/05/14 09:06:43;;;;;;;;;;;;;;;;;;5046706;28;1252;-76
2022/05/14 09:09:09;;;;;;;;;;;;;;;;;;5046344;28;1169;-76
2022/05/14 09:11:43;;;;;;;;;;;;;;;;;;5045755;28;1969;-75
2022/05/14 09:14:41;;;;;;;;;;;;;;;;;;5053623;28;1204;-76
2022/05/14 09:17:06;;;;;;;;;;;;;;;;;;5021817;28;1345;-78
2022/05/14 09:19:37;;;;;;;;;;;;;;;;;;5045040;28;1129;-76
2022/05/14 09:22:09;;;;;;;;;;;;;;;;;;5044159;28;1185;-77
2022/05/14 09:24:38;;;;;;;;;;;;;;;;;;5045598;28;1195;-77
2022/05/14 09:27:12;;;;;;;;;;;;;;;;;;5045221;28;1296;-78
2022/05/14 09:29:40;;;;;;;;;;;;;;;;;;5052015;28;1141;-77
2022/05/14 09:32:12;;;;;;;;;;;;;;;;;;5078554;28;1940;-78
2022/05/14 09:34:37;;;;;;;;;;;;;;;;;;5069309;28;1152;-77
2022/05/14 09:37:10;;;;;;;;;;;;;;;;;;5060809;28;1228;-78
2022/05/14 09:39:36;;;;;;;;;;;;;;;;;;5055366;28;1152;-78
2022/05/14 09:42:08;;;;;;;;;;;;;;;;;;5061313;28;1165;-78
2022/05/14 09:44:45;;;;;;;;;;;;;;;;;;5063192;28;1096;-76
2022/05/14 09:47:15;;;;;;;;;;;;;;;;;;5062715;28;1179;-77
2022/05/14 09:49:42;;;;;;;;;;;;;;;;;;5079618;28;1294;-77
2022/05/14 09:52:13;;;;;;;;;;;;;;;;;;5061452;28;1886;-77
2022/05/14 09:54:48;;;;;;;;;;;;;;;;;;5065729;28;1136;-77
2022/05/14 09:57:13;;;;;;;;;;;;;;;;;;5064901;28;1246;-79
2022/05/14 09:59:57;;;;;;;;;;;;;;;;;;5057843;28;1303;-78
2022/05/14 10:02:28;;;;;;;;;;;;;;;;;;5030844;28;1227;-77
2022/05/14 10:05:05;;;;;;;;;;;;;;;;;;5027557;28;1359;-78
2022/05/14 10:07:42;;;;;;;;;;;;;;;;;;5027903;28;1267;-78
2022/05/14 10:10:24;;;;;;;;;;;;;;;;;;5027896;28;1140;-77
2022/05/14 10:13:08;;;;;;;;;;;;;;;;;;5022073;28;1910;-78
2022/05/14 10:15:47;;;;;;;;;;;;;;;;;;5028325;28;1338;-79
2022/05/14 10:18:21;;;;;;;;;;;;;;;;;;5052761;28;1152;-77
2022/05/14 10:20:46;;;;;;;;;;;;;;;;;;5063179;28;1313;-76
2022/05/14 10:26:45;;;;;;;;;;;;;;;;;;5058340;28;1036;-78
2022/05/14 10:29:19;;;;;;;;;;;;;;;;;;5053654;28;1073;-77
2022/05/14 10:32:06;;;;;;;;;;;;;;;;;;5030400;28;1890;-77
2022/05/14 10:34:34;;;;;;;;;;;;;;;;;;5028761;28;1390;-77
2022/05/14 10:37:09;;;;;;;;;;;;;;;;;;5054061;28;1224;-77
2022/05/14 10:39:39;;;;;;;;;;;;;;;;;;5058854;28;1204;-76
2022/05/14 10:42:16;;;;;;;;;;;;;;;;;;5040172;28;1355;-76
2022/05/14 10:44:50;;;;;;;;;;;;;;;;;;5064543;28;1211;-78
2022/05/14 10:47:16;;;;;;;;;;;;;;;;;;5067344;28;1247;-79
2022/05/14 10:49:53;;;;;;;;;;;;;;;;;;5066791;28;1156;-79
2022/05/14 10:52:19;;;;;;;;;;;;;;;;;;5055557;28;1939;-82
2022/05/14 10:54:45;;;;;;;;;;;;;;;;;;5085879;28;897;-84
2022/05/14 10:57:13;;;;;;;;;;;;;;;;;;5066588;28;1283;-82
2022/05/14 10:59:41;;;;;;;;;;;;;;;;;;5065507;28;1175;-82
2022/05/14 11:02:15;;;;;;;;;;;;;;;;;;5085350;28;1146;-83
2022/05/14 11:04:40;;;;;;;;;;;;;;;;;;5067356;28;912;-84
2022/05/14 11:07:14;;;;;;;;;;;;;;;;;;5068550;28;1366;-83
2022/05/14 11:09:44;;;;;;;;;;;;;;;;;;5067818;28;1105;-83
2022/05/14 11:12:18;;;;;;;;;;;;;;;;;;5076895;28;1977;-83
2022/05/14 11:14:46;;;;;;;;;;;;;;;;;;5044048;28;1333;-78
2022/05/14 11:17:17;;;;;;;;;;;;;;;;;;5047735;28;1076;-79
2022/05/14 11:19:43;;;;;;;;;;;;;;;;;;5046184;28;1287;-81
2022/05/14 11:22:23;;;;;;;;;;;;;;;;;;5048450;28;1223;-84
2022/05/14 11:24:49;;;;;;;;;;;;;;;;;;5063326;28;1238;-74
2022/05/14 11:27:34;;;;;;;;;;;;;;;;;;5072302;28;1184;-75
2022/05/14 11:30:06;;;;;;;;;;;;;;;;;;5046971;28;1673;-76
2022/05/14 11:32:52;;;;;;;;;;;;;;;;;;5065102;28;1948;-76
2022/05/14 11:35:17;;;;;;;;;;;;;;;;;;5065736;28;1168;-78
2022/05/14 11:37:45;;;;;;;;;;;;;;;;;;5055235;28;1243;-78
2022/05/14 11:40:24;;;;;;;;;;;;;;;;;;5061931;28;1257;-78
2022/05/14 11:43:04;;;;;;;;;;;;;;;;;;5042556;28;1419;-79
2022/05/14 11:45:30;;;;;;;;;;;;;;;;;;5048594;28;1191;-77
2022/05/14 11:48:06;;;;;;;;;;;;;;;;;;5066159;28;1442;-77
2022/05/14 11:50:39;;;;;;;;;;;;;;;;;;5043849;28;1341;-77
2022/05/14 11:53:08;;;;;;;;;;;;;;;;;;5045241;28;1885;-77
2022/05/14 11:55:41;;;;;;;;;;;;;;;;;;5047654;28;1141;-77
2022/05/14 11:58:22;;;;;;;;;;;;;;;;;;5061335;28;1211;-78
2022/05/14 12:00:49;;;;;;;;;;;;;;;;;;5067989;28;1132;-80
2022/05/14 12:03:28;;;;;;;;;;;;;;;;;;5050391;28;1238;-78
2022/05/14 12:06:07;;;;;;;;;;;;;;;;;;5051444;28;1121;-77
2022/05/14 12:08:41;;;;;;;;;;;;;;;;;;5068428;28;1180;-77
2022/05/14 12:11:25;;;;;;;;;;;;;;;;;;5065792;28;1188;-78
2022/05/14 12:13:59;;;;;;;;;;;;;;;;;;5060374;28;1200;-79
2022/05/14 12:16:51;;;;;;;;;;;;;;;;;;5064312;28;1149;-78
2022/05/14 12:19:24;;;;;;;;;;;;;;;;;;5059362;28;1334;-78
2022/05/14 12:21:54;;;;;;;;;;;;;;;;;;5067045;28;1176;-78
2022/05/14 12:24:27;;;;;;;;;;;;;;;;;;5062517;28;1143;-79
2022/05/14 12:26:52;;;;;;;;;;;;;;;;;;5048469;28;990;-78
2022/05/14 12:29:31;;;;;;;;;;;;;;;;;;5056821;28;1129;-80
2022/05/14 12:34:45;;;;;;;;;;;;;;;;;;5045400;28;1020;-77
2022/05/14 12:37:24;;;;;;;;;;;;;;;;;;5046443;28;1185;-78
2022/05/14 12:39:51;;;;;;;;;;;;;;;;;;5049074;28;1187;-79
2022/05/14 12:42:20;;;;;;;;;;;;;;;;;;5044099;28;1142;-86
2022/05/14 12:44:47;;;;;;;;;;;;;;;;;;5046473;28;1224;-76
2022/05/14 12:47:20;;;;;;;;;;;;;;;;;;5046673;28;1199;-76
2022/05/14 12:49:46;;;;;;;;;;;;;;;;;;5051408;28;1164;-85
2022/05/14 12:52:11;;;;;;;;;;;;;;;;;;5079948;28;1885;-84
2022/05/14 12:54:41;;;;;;;;;;;;;;;;;;5046980;28;1278;-84
2022/05/14 12:57:08;;;;;;;;;;;;;;;;;;5047854;28;799;-83
2022/05/14 12:59:36;;;;;;;;;;;;;;;;;;5044630;28;1329;-85
2022/05/14 13:02:03;;;;;;;;;;;;;;;;;;5028914;28;1328;-82
2022/05/14 13:04:49;;;;;;;;;;;;;;;;;;5043506;28;1224;-83
2022/05/14 13:07:14;;;;;;;;;;;;;;;;;;5056376;28;1298;-84
2022/05/14 13:09:41;;;;;;;;;;;;;;;;;;5065137;28;1223;-85
2022/05/14 13:12:07;;;;;;;;;;;;;;;;;;5051406;28;2032;-84
2022/05/14 13:14:34;;;;;;;;;;;;;;;;;;5029894;28;1212;-83
2022/05/14 13:17:01;;;;;;;;;;;;;;;;;;5068005;28;1160;-84
2022/05/14 13:19:45;;;;;;;;;;;;;;;;;;5056921;28;1310;-84
2022/05/14 13:22:12;;;;;;;;;;;;;;;;;;5064369;28;1211;-85
2022/05/14 13:24:38;;;;;;;;;;;;;;;;;;5047479;28;1117;-84
2022/05/14 13:27:10;;;;;;;;;;;;;;;;;;5041279;28;1320;-85
2022/05/14 13:29:36;;;;;;;;;;;;;;;;;;5063573;28;1620;-84
2022/05/14 13:32:07;;;;;;;;;;;;;;;;;;5069369;28;1875;-84
2022/05/14 13:37:25;;;;;;;;;;;;;;;;;;5053866;28;1028;-83
2022/05/14 13:39:53;;;;;;;;;;;;;;;;;;5032249;28;1542;-84
2022/05/14 13:42:27;;;;;;;;;;;;;;;;;;5030176;28;1292;-83
2022/05/14 13:45:13;;;;;;;;;;;;;;;;;;5051227;28;1215;-84
2022/05/14 13:47:40;;;;;;;;;;;;;;;;;;5062769;28;1311;-84
2022/05/14 13:50:06;;;;;;;;;;;;;;;;;;5052604;28;1413;-85
2022/05/14 13:52:33;;;;;;;;;;;;;;;;;;5059171;28;1926;-84
2022/05/14 13:55:10;;;;;;;;;;;;;;;;;;5064409;28;1265;-80
2022/05/14 13:57:38;;;;;;;;;;;;;;;;;;5061158;28;1683;-80
2022/05/14 14:00:05;;;;;;;;;;;;;;;;;;5085713;28;1203;-79
2022/05/14 14:02:31;;;;;;;;;;;;;;;;;;5052983;28;1319;-79
2022/05/14 14:04:58;;;;;;;;;;;;;;;;;;5052341;28;1331;-78
2022/05/14 14:07:28;;;;;;;;;;;;;;;;;;5071475;28;1243;-78
2022/05/14 14:09:54;;;;;;;;;;;;;;;;;;5089776;28;1128;-78
2022/05/14 14:12:23;;;;;;;;;;;;;;;;;;5068707;28;1930;-78
2022/05/14 14:14:49;;;;;;;;;;;;;;;;;;5066976;28;1274;-78
2022/05/14 14:17:17;;;;;;;;;;;;;;;;;;5089955;28;1200;-79
2022/05/14 14:19:42;;;;;;;;;;;;;;;;;;5086720;28;1081;-79
2022/05/14 14:22:09;;;;;;;;;;;;;;;;;;5070949;28;1299;-79
2022/05/14 14:24:35;;;;;;;;;;;;;;;;;;5088463;28;1145;-80
2022/05/14 14:27:10;;;;;;;;;;;;;;;;;;5070279;28;1312;-79
2022/05/14 14:29:36;;;;;;;;;;;;;;;;;;5061182;28;1213;-80
2022/05/14 14:32:01;;;;;;;;;;;;;;;;;;5043127;28;1969;-78
2022/05/14 14:34:35;;;;;;;;;;;;;;;;;;5048017;28;1259;-78
2022/05/14 14:37:01;;;;;;;;;;;;;;;;;;5053121;28;1339;-78
2022/05/14 14:39:32;;;;;;;;;;;;;;;;;;5049748;28;1258;-78
2022/05/14 14:42:10;;;;;;;;;;;;;;;;;;5052179;28;1232;-78
2022/05/14 14:44:35;;;;;;;;;;;;;;;;;;5049052;28;1215;-78
2022/05/14 14:47:00;;;;;;;;;;;;;;;;;;5052317;28;1288;-78
2022/05/14 14:49:33;;;;;;;;;;;;;;;;;;5048718;28;1204;-79
2022/05/14 14:52:02;;;;;;;;;;;;;;;;;;5084176;28;1890;-78
2022/05/14 14:54:28;;;;;;;;;;;;;;;;;;5089326;28;1203;-77
2022/05/14 14:56:54;;;;;;;;;;;;;;;;;;5072935;28;1246;-78
2022/05/14 14:59:19;;;;;;;;;;;;;;;;;;5068910;28;1187;-79
2022/05/14 15:01:49;;;;;;;;;;;;;;;;;;5089323;28;1246;-79
2022/05/14 15:04:22;;;;;;;;;;;;;;;;;;5069058;28;1238;-79
2022/05/14 15:06:49;;;;;;;;;;;;;;;;;;5089121;28;1145;-77
2022/05/14 15:09:14;;;;;;;;;;;;;;;;;;5089210;28;1263;-78
2022/05/14 15:11:40;;;;;;;;;;;;;;;;;;5053935;28;1973;-79
2022/05/14 15:14:08;;;;;;;;;;;;;;;;;;5051049;28;1302;-78
2022/05/14 15:16:33;;;;;;;;;;;;;;;;;;5065734;28;1288;-78
2022/05/14 15:18:59;;;;;;;;;;;;;;;;;;5060839;28;1295;-77
2022/05/14 15:21:24;;;;;;;;;;;;;;;;;;5066850;28;1149;-85
2022/05/14 15:23:49;;;;;;;;;;;;;;;;;;5069976;28;1279;-75
2022/05/14 15:26:15;;;;;;;;;;;;;;;;;;5044294;28;1262;-81
2022/05/14 15:28:40;;;;;;;;;;;;;;;;;;5050605;28;1208;-81
2022/05/14 15:31:12;;;;;;;;;;;;;;;;;;5057380;28;1121;-81
2022/05/14 15:33:47;;;;;;;;;;;;;;;;;;5044656;28;1898;-81
2022/05/14 15:36:12;;;;;;;;;;;;;;;;;;5051038;28;1172;-82
2022/05/14 15:38:40;;;;;;;;;;;;;;;;;;5071770;28;1215;-82
2022/05/14 15:41:09;;;;;;;;;;;;;;;;;;5054677;28;1158;-81
2022/05/14 15:43:36;;;;;;;;;;;;;;;;;;5080212;28;1253;-81
2022/05/14 15:46:03;;;;;;;;;;;;;;;;;;5037092;28;1236;-81
2022/05/14 15:48:34;;;;;;;;;;;;;;;;;;5058107;28;1267;-81
2022/05/14 15:51:04;;;;;;;;;;;;;;;;;;5069865;28;1300;-80
2022/05/14 15:53:30;;;;;;;;;;;;;;;;;;5073108;28;1975;-83
2022/05/14 15:55:56;;;;;;;;;;;;;;;;;;5032721;28;1280;-81
2022/05/14 15:58:22;;;;;;;;;;;;;;;;;;5046268;28;1252;-82
2022/05/14 16:00:48;;;;;;;;;;;;;;;;;;5056513;28;1637;-80
2022/05/14 16:03:13;;;;;;;;;;;;;;;;;;5067566;28;1109;-82
2022/05/14 16:05:38;;;;;;;;;;;;;;;;;;5049170;28;1316;-81
2022/05/14 16:08:04;;;;;;;;;;;;;;;;;;5066979;28;1313;-81
2022/05/14 16:16:00;;;;;;;;;;;;;;;;;;5087487;28;1045;-80
2022/05/14 16:18:28;;;;;;;;;;;;;;;;;;5087774;28;1203;-80
2022/05/14 16:20:54;;;;;;;;;;;;;;;;;;5066422;28;1184;-81
2022/05/14 16:23:19;;;;;;;;;;;;;;;;;;5056281;28;1017;-83
2022/05/14 16:25:44;;;;;;;;;;;;;;;;;;5063972;28;1307;-82
2022/05/14 16:28:10;;;;;;;;;;;;;;;;;;5044717;28;1192;-81
2022/05/14 16:30:39;;;;;;;;;;;;;;;;;;5065607;28;1330;-81
2022/05/14 16:33:04;;;;;;;;;;;;;;;;;;5055181;28;2035;-82
2022/05/14 16:35:30;;;;;;;;;;;;;;;;;;5054608;28;1294;-81
2022/05/14 16:37:55;;;;;;;;;;;;;;;;;;5065930;28;1164;-82
2022/05/14 16:40:21;;;;;;;;;;;;;;;;;;5049873;28;1277;-82
2022/05/14 16:42:56;;;;;;;;;;;;;;;;;;5047000;28;1320;-81
2022/05/14 16:45:22;;;;;;;;;;;;;;;;;;5089403;28;1152;-82
2022/05/14 16:47:47;;;;;;;;;;;;;;;;;;5051271;28;1244;-82
2022/05/14 16:50:12;;;;;;;;;;;;;;;;;;5068571;28;1136;-82
2022/05/14 16:52:40;;;;;;;;;;;;;;;;;;5045695;28;1926;-82
2022/05/14 16:55:07;;;;;;;;;;;;;;;;;;5046594;28;1359;-82
2022/05/14 16:57:32;;;;;;;;;;;;;;;;;;5044779;28;1200;-82
2022/05/14 16:59:58;;;;;;;;;;;;;;;;;;5042764;28;1147;-82
2022/05/14 17:02:23;;;;;;;;;;;;;;;;;;5046428;28;1137;-82
2022/05/14 17:04:48;;;;;;;;;;;;;;;;;;5059038;28;1080;-81
2022/05/14 17:07:14;;;;;;;;;;;;;;;;;;5046407;28;1309;-82
2022/05/14 17:09:47;;;;;;;;;;;;;;;;;;5043596;28;1482;-82
2022/05/14 17:12:12;;;;;;;;;;;;;;;;;;5043973;28;1985;-82
2022/05/14 17:14:38;;;;;;;;;;;;;;;;;;5042597;28;1218;-81
2022/05/14 17:17:04;;;;;;;;;;;;;;;;;;5045906;28;1236;-82
2022/05/14 17:19:29;;;;;;;;;;;;;;;;;;5044964;28;1140;-83
2022/05/14 17:21:55;;;;;;;;;;;;;;;;;;5045079;28;1224;-82
2022/05/14 17:24:23;;;;;;;;;;;;;;;;;;5045952;28;1156;-83
2022/05/14 17:26:48;;;;;;;;;;;;;;;;;;5041953;28;1245;-82
2022/05/14 17:29:14;;;;;;;;;;;;;;;;;;5041470;28;1298;-82
2022/05/14 17:31:39;;;;;;;;;;;;;;;;;;5045169;28;1898;-81
2022/05/14 17:34:05;;;;;;;;;;;;;;;;;;5043362;28;1256;-81
2022/05/14 17:36:30;;;;;;;;;;;;;;;;;;5045936;28;1168;-81
2022/05/14 17:41:40;;;;;;;;;;;;;;;;;;5047511;28;1076;-81
2022/05/14 17:44:05;;;;;;;;;;;;;;;;;;5056651;28;1156;-82
2022/05/14 17:46:31;;;;;;;;;;;;;;;;;;5046915;28;1164;-82